createdAt,value
2018-03-03T00:02:19.946Z,155.95
2018-03-03T00:04:47.458Z,168.40
2018-03-03T00:07:14.974Z,160.98
2018-03-03T00:09:42.514Z,162.00
2018-03-03T00:12:10.682Z,153.38
2018-03-03T00:14:38.353Z,164.90
2018-03-03T00:17:05.873Z,174.38
2018-03-03T00:19:33.580Z,162.35
2018-03-03T00:22:01.878Z,156.93
2018-03-03T00:24:29.398Z,164.02
2018-03-03T00:26:56.941Z,168.23
2018-03-03T00:29:24.461Z,162.77
2018-03-03T00:31:51.979Z,169.45
2018-03-03T00:34:19.535Z,159.32
2018-03-03T00:36:47.071Z,158.63
2018-03-03T00:39:14.732Z,162.52
2018-03-03T00:41:42.254Z,173.38
2018-03-03T00:44:09.779Z,159.85
2018-03-03T00:46:37.342Z,157.23
2018-03-03T00:49:04.869Z,169.20
2018-03-03T00:51:32.867Z,158.10
2018-03-03T00:54:00.389Z,170.35
2018-03-03T00:56:27.926Z,174.10
2018-03-03T00:58:55.492Z,173.90
2018-03-03T01:01:23.020Z,168.10
2018-03-03T01:03:50.762Z,172.07
2018-03-03T01:06:18.286Z,173.32
2018-03-03T01:08:45.802Z,183.52
2018-03-03T01:11:13.339Z,160.43
2018-03-03T01:13:40.861Z,183.10
2018-03-03T01:16:09.298Z,181.77
2018-03-03T01:18:36.821Z,176.23
2018-03-03T01:21:04.334Z,184.13
2018-03-03T01:23:31.879Z,189.82
2018-03-03T01:25:59.400Z,188.43
2018-03-03T01:28:28.222Z,180.32
2018-03-03T01:30:55.742Z,186.10
2018-03-03T01:33:24.261Z,207.82
2018-03-03T01:35:51.812Z,165.37
2018-03-03T01:38:19.334Z,183.65
2018-03-03T01:40:48.168Z,179.55
2018-03-03T01:43:15.687Z,179.02
2018-03-03T01:45:43.201Z,178.80
2018-03-03T01:48:10.753Z,181.77
2018-03-03T01:50:38.331Z,188.73
2018-03-03T01:53:05.883Z,182.65
2018-03-03T01:55:33.403Z,184.73
2018-03-03T01:58:01.066Z,176.52
2018-03-03T02:00:29.052Z,186.73
2018-03-03T02:02:57.534Z,164.75
2018-03-03T02:05:25.092Z,179.82
2018-03-03T02:07:52.609Z,169.10
2018-03-03T02:10:20.294Z,183.07
2018-03-03T02:12:47.822Z,175.15
2018-03-03T02:15:15.346Z,184.40
2018-03-03T02:17:42.886Z,170.60
2018-03-03T02:20:10.409Z,180.05
2018-03-03T02:22:38.088Z,182.10
2018-03-03T02:25:05.610Z,163.07
2018-03-03T02:27:33.131Z,165.27
2018-03-03T02:30:00.686Z,185.50
2018-03-03T02:32:28.218Z,176.45
2018-03-03T02:34:55.857Z,172.80
2018-03-03T02:37:23.378Z,163.40
2018-03-03T02:39:50.906Z,176.18
2018-03-03T02:42:18.463Z,174.00
2018-03-03T02:44:45.990Z,181.65
2018-03-03T02:47:13.782Z,154.45
2018-03-03T02:49:41.694Z,183.82
2018-03-03T02:52:09.217Z,150.05
2018-03-03T02:54:36.770Z,173.43
2018-03-03T02:57:04.295Z,199.25
2018-03-03T02:59:31.855Z,172.73
2018-03-03T03:01:59.410Z,166.02
2018-03-03T03:04:26.946Z,186.10
2018-03-03T03:06:54.506Z,174.65
2018-03-03T03:09:22.029Z,183.23
2018-03-03T03:11:49.589Z,197.75
2018-03-03T03:14:17.209Z,184.48
2018-03-03T03:16:44.753Z,182.55
2018-03-03T03:19:12.307Z,174.00
2018-03-03T03:21:39.826Z,198.68
2018-03-03T03:24:07.524Z,195.15
2018-03-03T03:26:35.055Z,182.68
2018-03-03T03:29:02.570Z,198.10
2018-03-03T03:31:30.119Z,163.35
2018-03-03T03:33:57.648Z,189.52
2018-03-03T03:36:25.202Z,179.18
2018-03-03T03:38:52.729Z,177.68
2018-03-03T03:41:20.258Z,166.80
2018-03-03T03:43:48.692Z,192.02
2018-03-03T03:46:16.228Z,177.45
2018-03-03T03:48:44.815Z,185.05
2018-03-03T03:51:12.338Z,202.93
2018-03-03T03:53:40.174Z,188.57
2018-03-03T03:56:07.726Z,189.05
2018-03-03T03:58:35.250Z,183.12
2018-03-03T04:01:03.042Z,158.48
2018-03-03T04:03:30.570Z,165.57
2018-03-03T04:05:58.090Z,173.20
2018-03-03T04:08:25.637Z,174.32
2018-03-03T04:10:53.193Z,196.37
2018-03-03T04:13:20.913Z,164.60
2018-03-03T04:15:48.437Z,160.80
2018-03-03T04:18:15.965Z,195.45
2018-03-03T04:20:43.514Z,172.70
2018-03-03T04:23:11.041Z,194.40
2018-03-03T04:25:38.817Z,180.35
2018-03-03T04:28:06.599Z,197.00
2018-03-03T04:30:34.122Z,165.80
2018-03-03T04:33:01.692Z,171.27
2018-03-03T04:35:29.217Z,168.73
2018-03-03T04:37:56.917Z,181.73
2018-03-03T04:40:24.446Z,179.70
2018-03-03T04:42:51.980Z,179.57
2018-03-03T04:45:19.542Z,152.27
2018-03-03T04:47:47.586Z,171.48
2018-03-03T04:50:15.226Z,172.18
2018-03-03T04:52:42.753Z,190.18
2018-03-03T04:55:10.297Z,168.65
2018-03-03T04:57:38.331Z,163.18
2018-03-03T05:00:11.738Z,170.23
2018-03-03T05:02:44.890Z,156.77
2018-03-03T05:05:28.175Z,140.32
2018-03-03T05:11:04.782Z,154.57
2018-03-03T05:13:35.901Z,159.02
2018-03-03T05:16:21.092Z,190.23
2018-03-03T05:22:08.743Z,177.80
2018-03-03T05:24:56.006Z,173.93
2018-03-03T05:30:42.369Z,161.80
2018-03-03T05:33:15.487Z,169.85
2018-03-03T05:35:57.651Z,175.68
2018-03-03T05:41:57.370Z,173.05
2018-03-03T05:44:30.526Z,165.25
2018-03-03T05:47:03.657Z,175.82
2018-03-03T05:49:36.930Z,160.02
2018-03-03T05:52:10.142Z,161.10
2018-03-03T05:58:06.680Z,191.52
2018-03-03T06:04:00.098Z,205.27
2018-03-03T06:06:46.295Z,152.40
2018-03-03T06:09:15.473Z,160.82
2018-03-03T06:11:43.045Z,162.45
2018-03-03T06:14:10.569Z,168.35
2018-03-03T06:16:38.114Z,175.52
2018-03-03T06:19:05.661Z,180.18
2018-03-03T06:21:33.187Z,160.95
2018-03-03T06:24:00.901Z,174.57
2018-03-03T06:26:28.534Z,177.05
2018-03-03T06:28:56.058Z,168.87
2018-03-03T06:31:23.621Z,154.43
2018-03-03T06:33:51.145Z,163.12
2018-03-03T06:36:18.701Z,177.12
2018-03-03T06:38:46.230Z,151.63
2018-03-03T06:41:13.758Z,149.15
2018-03-03T06:43:41.322Z,159.27
2018-03-03T06:46:08.856Z,157.82
2018-03-03T06:48:36.602Z,185.25
2018-03-03T06:51:04.137Z,186.88
2018-03-03T06:53:31.662Z,170.30
2018-03-03T06:55:59.218Z,148.13
2018-03-03T06:58:26.746Z,148.43
2018-03-03T07:00:55.343Z,181.07
2018-03-03T07:03:22.901Z,151.80
2018-03-03T07:05:50.434Z,159.27
2018-03-03T07:08:17.994Z,180.75
2018-03-03T07:10:45.525Z,176.18
2018-03-03T07:13:13.076Z,162.82
2018-03-03T07:15:40.595Z,169.57
2018-03-03T07:18:10.108Z,168.05
2018-03-03T07:20:37.661Z,161.00
2018-03-03T07:23:05.370Z,157.90
2018-03-03T07:25:33.230Z,159.70
2018-03-03T07:28:00.767Z,155.77
2018-03-03T07:30:28.410Z,158.60
2018-03-03T07:32:56.018Z,151.87
2018-03-03T07:35:23.547Z,156.37
2018-03-03T07:37:51.117Z,165.85
2018-03-03T07:40:18.649Z,175.10
2018-03-03T07:42:46.174Z,142.00
2018-03-03T07:45:13.743Z,153.82
2018-03-03T07:47:41.275Z,152.90
2018-03-03T07:50:09.209Z,154.68
2018-03-03T07:52:36.738Z,150.20
2018-03-03T07:55:04.275Z,147.20
2018-03-03T07:57:31.931Z,141.93
2018-03-03T07:59:59.459Z,135.65
2018-03-03T08:02:28.016Z,159.60
2018-03-03T08:04:55.638Z,145.52
2018-03-03T08:07:23.173Z,151.15
2018-03-03T08:09:50.894Z,145.15
2018-03-03T08:12:18.477Z,146.87
2018-03-03T08:14:46.398Z,150.10
2018-03-03T08:17:13.941Z,163.60
2018-03-03T08:19:41.494Z,168.48
2018-03-03T08:22:09.100Z,155.93
2018-03-03T08:24:36.631Z,165.35
2018-03-03T08:27:04.265Z,174.07
2018-03-03T08:29:32.210Z,167.45
2018-03-03T08:31:59.746Z,188.85
2018-03-03T08:34:27.355Z,171.87
2018-03-03T08:36:55.268Z,161.88
2018-03-03T08:39:22.798Z,162.07
2018-03-03T08:41:50.474Z,150.23
2018-03-03T08:44:18.139Z,155.68
2018-03-03T08:46:46.122Z,149.12
2018-03-03T08:49:13.888Z,156.37
2018-03-03T08:51:41.758Z,146.55
2018-03-03T08:54:09.621Z,158.87
2018-03-03T08:56:37.355Z,183.12
2018-03-03T08:59:05.354Z,143.32
2018-03-03T09:01:33.102Z,161.95
2018-03-03T09:04:00.762Z,156.52
2018-03-03T09:06:28.483Z,158.55
2018-03-03T09:08:56.186Z,152.38
2018-03-03T09:11:23.969Z,157.90
2018-03-03T09:13:51.836Z,157.30
2018-03-03T09:16:19.662Z,161.35
2018-03-03T09:18:47.568Z,162.20
2018-03-03T09:21:15.242Z,151.02
2018-03-03T09:23:43.097Z,152.27
2018-03-03T09:26:11.476Z,154.73
2018-03-03T09:28:39.345Z,166.62
2018-03-03T09:31:07.210Z,168.20
2018-03-03T09:33:35.280Z,154.55
2018-03-03T09:36:03.186Z,152.43
2018-03-03T09:38:30.987Z,161.20
2018-03-03T09:40:58.879Z,177.75
2018-03-03T09:43:27.256Z,155.70
2018-03-03T09:45:55.124Z,151.50
2018-03-03T09:48:22.990Z,166.97
2018-03-03T09:50:50.825Z,169.90
2018-03-03T09:53:18.845Z,158.43
2018-03-03T09:55:46.598Z,158.90
2018-03-03T09:58:14.769Z,141.53
2018-03-03T10:00:42.455Z,163.03
2018-03-03T10:03:10.308Z,154.70
2018-03-03T10:05:38.255Z,160.77
2018-03-03T10:08:06.434Z,141.87
2018-03-03T10:10:34.812Z,140.50
2018-03-03T10:13:02.475Z,159.97
2018-03-03T10:15:30.650Z,164.60
2018-03-03T10:17:58.519Z,157.80
2018-03-03T10:20:26.381Z,144.57
2018-03-03T10:22:54.657Z,191.13
2018-03-03T10:25:22.523Z,208.60
2018-03-03T10:27:50.288Z,130.30
2018-03-03T10:30:18.154Z,134.67
2018-03-03T10:32:46.021Z,143.17
2018-03-03T10:35:13.976Z,151.97
2018-03-03T10:37:41.856Z,153.40
2018-03-03T10:40:09.618Z,134.97
2018-03-03T10:42:37.486Z,141.07
2018-03-03T10:45:05.134Z,140.87
2018-03-03T10:47:33.145Z,138.63
2018-03-03T10:50:00.887Z,133.00
2018-03-03T10:52:29.009Z,112.50
2018-03-03T10:54:56.921Z,122.80
2018-03-03T10:57:25.669Z,113.30
2018-03-03T10:59:54.497Z,116.50
2018-03-03T11:02:22.672Z,121.23
2018-03-03T11:04:50.641Z,132.03
2018-03-03T11:07:18.507Z,115.77
2018-03-03T11:09:46.680Z,106.17
2018-03-03T11:12:15.058Z,109.83
2018-03-03T11:14:42.929Z,97.83
2018-03-03T11:17:10.698Z,88.90
2018-03-03T11:19:38.456Z,90.60
2018-03-03T11:22:06.220Z,94.37
2018-03-03T11:24:33.972Z,90.23
2018-03-03T11:27:02.462Z,89.63
2018-03-03T11:29:30.127Z,105.23
2018-03-03T11:31:57.891Z,97.07
2018-03-03T11:34:25.653Z,97.13
2018-03-03T11:36:53.929Z,101.00
2018-03-03T11:39:21.797Z,91.20
2018-03-03T11:41:49.911Z,94.73
2018-03-03T11:44:17.760Z,95.20
2018-03-03T11:46:45.610Z,106.97
2018-03-03T11:49:13.577Z,87.83
2018-03-03T11:51:41.314Z,89.07
2018-03-03T11:54:09.302Z,82.63
2018-03-03T11:56:37.271Z,81.23
2018-03-03T11:59:05.137Z,83.60
2018-03-03T12:01:33.310Z,83.07
2018-03-03T12:04:01.177Z,82.67
2018-03-03T12:06:29.044Z,87.43
2018-03-03T12:08:56.910Z,80.30
2018-03-03T12:11:24.845Z,83.37
2018-03-03T12:13:52.745Z,83.80
2018-03-03T12:16:20.613Z,86.27
2018-03-03T12:18:48.683Z,99.27
2018-03-03T12:21:16.549Z,73.67
2018-03-03T12:23:44.415Z,79.60
2018-03-03T12:26:12.692Z,92.37
2018-03-03T12:28:40.558Z,89.67
2018-03-03T12:31:08.245Z,97.77
2018-03-03T12:33:36.087Z,71.33
2018-03-03T12:36:03.850Z,77.10
2018-03-03T12:38:31.865Z,69.37
2018-03-03T12:40:59.584Z,76.60
2018-03-03T12:43:28.227Z,70.47
2018-03-03T12:45:56.136Z,66.17
2018-03-03T12:48:24.003Z,66.47
2018-03-03T12:50:51.869Z,65.90
2018-03-03T12:53:19.735Z,61.90
2018-03-03T12:55:47.601Z,64.47
2018-03-03T12:58:15.878Z,65.00
2018-03-03T13:00:43.746Z,65.27
2018-03-03T13:03:11.713Z,71.67
2018-03-03T13:05:39.476Z,65.60
2018-03-03T13:08:07.241Z,66.83
2018-03-03T13:10:36.032Z,62.47
2018-03-03T13:13:03.895Z,64.47
2018-03-03T13:15:32.072Z,59.83
2018-03-03T13:17:59.832Z,70.10
2018-03-03T13:20:27.802Z,62.57
2018-03-03T13:22:55.668Z,70.90
2018-03-03T13:25:23.432Z,64.83
2018-03-03T13:27:51.300Z,94.63
2018-03-03T13:30:18.964Z,48.87
2018-03-03T13:32:46.828Z,50.03
2018-03-03T13:35:14.796Z,55.43
2018-03-03T13:37:42.662Z,54.00
2018-03-03T13:40:10.733Z,54.00
2018-03-03T13:42:38.466Z,55.77
2018-03-03T13:45:06.279Z,65.90
2018-03-03T13:47:34.231Z,70.17
2018-03-03T13:50:01.967Z,47.03
2018-03-03T13:52:30.513Z,50.60
2018-03-03T13:54:58.241Z,56.97
2018-03-03T13:57:26.107Z,48.40
2018-03-03T13:59:54.793Z,55.83
2018-03-03T14:02:22.658Z,45.15
2018-03-03T14:04:50.730Z,50.60
2018-03-03T14:07:18.595Z,46.03
2018-03-03T14:09:46.349Z,46.15
2018-03-03T14:12:14.332Z,56.60
2018-03-03T14:14:42.161Z,62.73
2018-03-03T14:17:10.286Z,49.80
2018-03-03T14:19:38.033Z,56.93
2018-03-03T14:22:05.698Z,67.77
2018-03-03T14:24:33.554Z,37.37
2018-03-03T14:27:01.199Z,41.37
2018-03-03T14:29:29.081Z,39.20
2018-03-03T14:31:56.849Z,29.27
2018-03-03T14:34:24.630Z,37.87
2018-03-03T14:36:52.481Z,32.93
2018-03-03T14:39:20.211Z,30.90
2018-03-03T14:41:48.418Z,25.43
2018-03-03T14:44:16.286Z,28.50
2018-03-03T14:46:44.156Z,26.85
2018-03-03T14:49:11.917Z,24.65
2018-03-03T14:51:39.668Z,30.10
2018-03-03T14:54:07.546Z,59.40
2018-03-03T14:56:35.259Z,37.30
2018-03-03T14:59:02.973Z,31.10
2018-03-03T15:01:31.043Z,35.25
2018-03-03T15:03:58.708Z,34.72
2018-03-03T15:06:26.533Z,40.45
2018-03-03T15:08:54.308Z,40.25
2018-03-03T15:11:21.990Z,43.42
2018-03-03T15:13:49.793Z,41.75
2018-03-03T15:16:17.583Z,34.10
2018-03-03T15:18:45.493Z,30.15
2018-03-03T15:21:13.156Z,29.90
2018-03-03T15:23:40.918Z,32.00
2018-03-03T15:26:09.050Z,37.45
2018-03-03T15:28:36.960Z,36.13
2018-03-03T15:31:04.930Z,39.95
2018-03-03T15:33:32.686Z,38.75
2018-03-03T15:36:00.559Z,37.28
2018-03-03T15:38:29.183Z,36.40
2018-03-03T15:40:56.946Z,37.35
2018-03-03T15:43:25.043Z,27.67
2018-03-03T15:45:53.785Z,37.60
2018-03-03T15:48:21.518Z,29.20
2018-03-03T15:50:49.300Z,39.17
2018-03-03T15:53:17.134Z,33.88
2018-03-03T15:55:44.900Z,36.22
2018-03-03T15:58:12.427Z,35.33
2018-03-03T16:00:40.019Z,37.30
2018-03-03T16:03:07.788Z,35.03
2018-03-03T16:05:35.543Z,30.15
2018-03-03T16:08:03.212Z,38.55
2018-03-03T16:10:31.053Z,42.28
2018-03-03T16:12:58.641Z,47.13
2018-03-03T16:15:26.421Z,42.85
2018-03-03T16:17:54.297Z,40.35
2018-03-03T16:20:22.051Z,44.58
2018-03-03T16:22:50.027Z,39.60
2018-03-03T16:25:17.636Z,34.72
2018-03-03T16:27:45.447Z,32.47
2018-03-03T16:30:13.208Z,30.35
2018-03-03T16:32:40.964Z,9.43
2018-03-03T16:35:08.740Z,11.95
2018-03-03T16:37:36.286Z,12.50
2018-03-03T16:40:03.823Z,7.93
2018-03-03T16:42:31.520Z,9.07
2018-03-03T16:44:59.446Z,14.10
2018-03-03T16:47:28.071Z,18.77
2018-03-03T16:49:55.836Z,23.60
2018-03-03T16:52:23.908Z,21.73
2018-03-03T16:54:51.529Z,15.07
2018-03-03T16:57:19.333Z,17.30
2018-03-03T16:59:47.200Z,22.83
2018-03-03T17:02:15.066Z,15.77
2018-03-03T17:04:42.878Z,18.33
2018-03-03T17:07:10.494Z,20.92
2018-03-03T17:09:38.359Z,13.32
2018-03-03T17:12:05.915Z,17.65
2018-03-03T17:14:33.682Z,19.00
2018-03-03T17:17:01.553Z,27.92
2018-03-03T17:19:29.418Z,19.92
2018-03-03T17:21:57.691Z,19.80
2018-03-03T17:24:25.345Z,20.05
2018-03-03T17:26:53.022Z,27.83
2018-03-03T17:29:20.659Z,40.85
2018-03-03T17:31:48.715Z,32.35
2018-03-03T17:34:16.796Z,21.52
2018-03-03T17:36:44.685Z,38.63
2018-03-03T17:39:12.478Z,38.53
2018-03-03T17:41:40.369Z,35.90
2018-03-03T17:44:08.287Z,37.03
2018-03-03T17:46:36.766Z,38.85
2018-03-03T17:49:04.632Z,46.00
2018-03-03T17:51:32.498Z,36.97
2018-03-03T17:54:00.775Z,43.15
2018-03-03T17:56:28.540Z,33.75
2018-03-03T17:58:56.425Z,37.78
2018-03-03T18:01:24.176Z,45.75
2018-03-03T18:03:51.970Z,41.60
2018-03-03T18:06:19.698Z,38.22
2018-03-03T18:08:48.395Z,32.60
2018-03-03T18:11:16.765Z,37.40
2018-03-03T18:13:44.567Z,33.15
2018-03-03T18:16:13.992Z,47.70
2018-03-03T18:18:42.000Z,37.40
2018-03-03T18:21:09.780Z,37.65
2018-03-03T18:23:37.660Z,40.45
2018-03-03T18:26:05.599Z,45.10
2018-03-03T18:28:33.466Z,39.92
2018-03-03T18:31:01.356Z,32.65
2018-03-03T18:33:30.175Z,42.17
2018-03-03T18:35:58.294Z,37.08
2018-03-03T18:38:26.162Z,41.95
2018-03-03T18:40:54.027Z,44.08
2018-03-03T18:43:21.961Z,36.63
2018-03-03T18:45:49.866Z,39.75
2018-03-03T18:48:18.342Z,44.88
2018-03-03T18:50:46.986Z,37.90
2018-03-03T18:53:14.853Z,52.00
2018-03-03T18:55:42.864Z,44.25
2018-03-03T18:58:10.731Z,44.38
2018-03-03T19:00:38.653Z,50.75
2018-03-03T19:03:06.463Z,49.17
2018-03-03T19:05:34.331Z,48.53
2018-03-03T19:08:02.401Z,46.60
2018-03-03T19:10:30.743Z,50.92
2018-03-03T19:12:59.573Z,54.67
2018-03-03T19:15:27.652Z,42.03
2018-03-03T19:17:55.506Z,33.35
2018-03-03T19:20:23.479Z,60.38
2018-03-03T19:22:51.342Z,47.58
2018-03-03T19:25:20.294Z,46.15
2018-03-03T19:27:49.019Z,46.30
2018-03-03T19:30:17.620Z,41.47
2018-03-03T19:32:45.574Z,45.65
2018-03-03T19:35:13.953Z,41.92
2018-03-03T19:37:42.126Z,52.60
2018-03-03T19:40:09.991Z,50.00
2018-03-03T19:42:37.858Z,50.50
2018-03-03T19:45:05.725Z,30.08
2018-03-03T19:47:33.543Z,40.80
2018-03-03T19:50:02.276Z,33.40
2018-03-03T19:52:30.142Z,53.35
2018-03-03T19:54:57.914Z,41.53
2018-03-03T19:57:25.876Z,35.17
2018-03-03T19:59:53.744Z,31.45
2018-03-03T20:02:22.223Z,35.53
2018-03-03T20:04:49.988Z,28.45
2018-03-03T20:07:17.868Z,28.48
2018-03-03T20:09:45.823Z,28.87
2018-03-03T20:12:13.689Z,27.80
2018-03-03T20:14:42.066Z,33.03
2018-03-03T20:17:09.938Z,26.98
2018-03-03T20:19:38.008Z,30.30
2018-03-03T20:22:09.766Z,29.98
2018-03-03T20:24:37.631Z,28.75
2018-03-03T20:27:05.907Z,36.60
2018-03-03T20:29:33.695Z,42.85
2018-03-03T20:32:01.537Z,30.75
2018-03-03T20:34:29.561Z,32.50
2018-03-03T20:36:57.390Z,33.08
2018-03-03T20:39:25.958Z,29.45
2018-03-03T20:41:53.786Z,46.20
2018-03-03T20:44:21.688Z,35.17
2018-03-03T20:46:49.620Z,36.33
2018-03-03T20:49:17.765Z,61.08
2018-03-03T20:51:46.005Z,48.22
2018-03-03T20:54:15.572Z,42.97
2018-03-03T20:56:43.540Z,52.60
2018-03-03T20:59:12.175Z,45.00
2018-03-03T21:01:40.032Z,49.00
2018-03-03T21:04:08.000Z,46.92
2018-03-03T21:06:35.904Z,53.75
2018-03-03T21:09:04.450Z,51.00
2018-03-03T21:11:34.588Z,41.05
2018-03-03T21:14:02.540Z,57.80
2018-03-03T21:16:30.711Z,55.22
2018-03-03T21:18:58.980Z,71.72
2018-03-03T21:21:27.235Z,65.30
2018-03-03T21:23:56.032Z,53.13
2018-03-03T21:26:23.940Z,50.85
2018-03-03T21:28:52.092Z,55.45
2018-03-03T21:31:20.266Z,51.67
2018-03-03T21:33:48.216Z,56.35
2018-03-03T21:36:16.103Z,63.60
2018-03-03T21:38:44.070Z,71.28
2018-03-03T21:41:12.039Z,54.75
2018-03-03T21:43:40.349Z,56.90
2018-03-03T21:46:08.144Z,56.63
2018-03-03T21:48:36.270Z,66.50
2018-03-03T21:51:04.941Z,62.35
2018-03-03T21:53:33.634Z,77.05
2018-03-03T21:56:01.594Z,62.62
2018-03-03T21:58:29.509Z,67.43
2018-03-03T22:00:57.336Z,66.53
2018-03-03T22:03:25.194Z,62.67
2018-03-03T22:05:53.060Z,61.95
2018-03-03T22:08:20.926Z,51.83
2018-03-03T22:10:48.794Z,82.32
2018-03-03T22:13:16.658Z,66.30
2018-03-03T22:15:44.495Z,70.75
2018-03-03T22:18:12.390Z,70.82
2018-03-03T22:20:40.182Z,70.30
2018-03-03T22:23:08.025Z,66.65
2018-03-03T22:25:35.992Z,67.68
2018-03-03T22:28:03.854Z,62.67
2018-03-03T22:30:32.913Z,74.03
2018-03-03T22:33:00.940Z,69.72
2018-03-03T22:35:29.301Z,61.13
2018-03-03T22:37:57.168Z,75.18
2018-03-03T22:40:25.034Z,73.25
2018-03-03T22:42:52.900Z,62.13
2018-03-03T22:45:21.692Z,72.00
2018-03-03T22:47:49.965Z,65.70
2018-03-03T22:50:17.837Z,68.62
2018-03-03T22:52:45.698Z,64.55
2018-03-03T22:55:13.671Z,56.42
2018-03-03T22:57:41.534Z,85.03
2018-03-03T23:00:09.503Z,63.83
2018-03-03T23:02:37.370Z,63.22
2018-03-03T23:05:05.132Z,72.87
2018-03-03T23:07:32.882Z,64.10
2018-03-03T23:10:00.736Z,67.45
2018-03-03T23:12:28.526Z,56.85
2018-03-03T23:14:56.294Z,50.75
2018-03-03T23:17:24.362Z,62.33
2018-03-03T23:19:52.228Z,54.85
2018-03-03T23:22:19.890Z,53.38
2018-03-03T23:24:47.545Z,49.47
2018-03-03T23:27:15.094Z,46.63
2018-03-03T23:29:42.958Z,56.35
2018-03-03T23:32:10.643Z,63.05
2018-03-03T23:34:38.199Z,61.88
2018-03-03T23:37:05.792Z,59.92
2018-03-03T23:39:33.521Z,52.05
2018-03-03T23:42:01.454Z,52.55
2018-03-03T23:44:29.360Z,61.22
2018-03-03T23:46:56.892Z,58.35
2018-03-03T23:49:24.690Z,53.65
2018-03-03T23:51:52.217Z,43.33
2018-03-03T23:54:20.110Z,46.37
2018-03-03T23:56:47.759Z,42.40
2018-03-03T23:59:15.309Z,50.25
